sensor_id;sensor_type;location;lat;lon;timestamp;temperature;humidity
61392;DHT22;47261;52.892;5.738;2023-11-21T00:00:18;10.70;99.90
61392;DHT22;47261;52.892;5.738;2023-11-21T00:02:44;10.70;99.90
61392;DHT22;47261;52.892;5.738;2023-11-21T00:05:14;10.70;99.90
61392;DHT22;47261;52.892;5.738;2023-11-21T00:07:40;10.70;99.90
61392;DHT22;47261;52.892;5.738;2023-11-21T00:10:08;10.80;99.90
61392;DHT22;47261;52.892;5.738;2023-11-21T00:12:34;10.80;99.90
61392;DHT22;47261;52.892;5.738;2023-11-21T00:15:00;10.80;99.90
61392;DHT22;47261;52.892;5.738;2023-11-21T00:17:27;10.80;99.90
61392;DHT22;47261;52.892;5.738;2023-11-21T00:19:52;10.80;99.90
61392;DHT22;47261;52.892;5.738;2023-11-21T00:22:18;10.80;99.90
61392;DHT22;47261;52.892;5.738;2023-11-21T00:24:45;10.80;99.90
61392;DHT22;47261;52.892;5.738;2023-11-21T00:27:11;10.80;99.90
61392;DHT22;47261;52.892;5.738;2023-11-21T00:29:36;10.80;99.90
61392;DHT22;47261;52.892;5.738;2023-11-21T00:32:04;10.80;99.90
61392;DHT22;47261;52.892;5.738;2023-11-21T00:34:31;10.80;99.90
61392;DHT22;47261;52.892;5.738;2023-11-21T00:36:56;10.80;99.90
61392;DHT22;47261;52.892;5.738;2023-11-21T00:39:22;10.80;99.90
61392;DHT22;47261;52.892;5.738;2023-11-21T00:41:48;10.80;99.90
61392;DHT22;47261;52.892;5.738;2023-11-21T00:44:13;10.80;99.90
61392;DHT22;47261;52.892;5.738;2023-11-21T00:46:39;10.80;99.90
61392;DHT22;47261;52.892;5.738;2023-11-21T00:49:05;10.80;99.90
61392;DHT22;47261;52.892;5.738;2023-11-21T00:51:30;10.80;99.90
61392;DHT22;47261;52.892;5.738;2023-11-21T00:53:56;10.80;99.90
61392;DHT22;47261;52.892;5.738;2023-11-21T00:56:22;10.80;99.90
61392;DHT22;47261;52.892;5.738;2023-11-21T00:58:48;10.80;99.90
61392;DHT22;47261;52.892;5.738;2023-11-21T01:01:20;10.80;99.90
61392;DHT22;47261;52.892;5.738;2023-11-21T01:03:47;10.80;99.90
61392;DHT22;47261;52.892;5.738;2023-11-21T01:06:13;10.90;99.90
61392;DHT22;47261;52.892;5.738;2023-11-21T01:08:38;10.90;99.90
61392;DHT22;47261;52.892;5.738;2023-11-21T01:11:04;10.90;99.90
61392;DHT22;47261;52.892;5.738;2023-11-21T01:13:33;10.90;99.90
61392;DHT22;47261;52.892;5.738;2023-11-21T01:15:58;10.90;99.90
61392;DHT22;47261;52.892;5.738;2023-11-21T01:18:24;10.90;99.90
61392;DHT22;47261;52.892;5.738;2023-11-21T01:20:51;10.90;99.90
61392;DHT22;47261;52.892;5.738;2023-11-21T01:23:18;10.90;99.90
61392;DHT22;47261;52.892;5.738;2023-11-21T01:25:44;11.00;99.90
61392;DHT22;47261;52.892;5.738;2023-11-21T01:28:10;11.00;99.90
61392;DHT22;47261;52.892;5.738;2023-11-21T01:30:36;10.90;99.90
61392;DHT22;47261;52.892;5.738;2023-11-21T01:33:01;10.90;99.90
61392;DHT22;47261;52.892;5.738;2023-11-21T01:35:27;10.90;99.90
61392;DHT22;47261;52.892;5.738;2023-11-21T01:37:52;10.90;99.90
61392;DHT22;47261;52.892;5.738;2023-11-21T01:40:18;10.90;99.90
61392;DHT22;47261;52.892;5.738;2023-11-21T01:42:44;10.90;99.90
61392;DHT22;47261;52.892;5.738;2023-11-21T01:45:12;10.90;99.90
61392;DHT22;47261;52.892;5.738;2023-11-21T01:47:38;10.90;99.90
61392;DHT22;47261;52.892;5.738;2023-11-21T01:50:07;11.00;99.90
61392;DHT22;47261;52.892;5.738;2023-11-21T01:52:34;11.00;99.90
61392;DHT22;47261;52.892;5.738;2023-11-21T01:55:01;11.00;99.90
61392;DHT22;47261;52.892;5.738;2023-11-21T01:57:28;11.00;99.90
61392;DHT22;47261;52.892;5.738;2023-11-21T01:59:54;11.00;99.90
61392;DHT22;47261;52.892;5.738;2023-11-21T02:02:20;11.00;99.90
61392;DHT22;47261;52.892;5.738;2023-11-21T02:04:45;11.00;99.90
61392;DHT22;47261;52.892;5.738;2023-11-21T02:07:11;11.00;99.90
61392;DHT22;47261;52.892;5.738;2023-11-21T02:09:37;11.10;99.90
61392;DHT22;47261;52.892;5.738;2023-11-21T02:12:08;11.10;99.90
61392;DHT22;47261;52.892;5.738;2023-11-21T02:14:36;11.10;99.90
61392;DHT22;47261;52.892;5.738;2023-11-21T02:17:02;11.10;99.90
61392;DHT22;47261;52.892;5.738;2023-11-21T02:19:29;11.20;99.90
61392;DHT22;47261;52.892;5.738;2023-11-21T02:21:57;11.20;99.90
61392;DHT22;47261;52.892;5.738;2023-11-21T02:24:26;11.20;99.90
61392;DHT22;47261;52.892;5.738;2023-11-21T02:26:52;11.20;99.90
61392;DHT22;47261;52.892;5.738;2023-11-21T02:29:19;11.20;99.90
61392;DHT22;47261;52.892;5.738;2023-11-21T02:31:48;11.20;99.90
61392;DHT22;47261;52.892;5.738;2023-11-21T02:34:17;11.20;99.90
61392;DHT22;47261;52.892;5.738;2023-11-21T02:36:47;11.20;99.90
61392;DHT22;47261;52.892;5.738;2023-11-21T02:39:15;11.20;99.90
61392;DHT22;47261;52.892;5.738;2023-11-21T02:41:42;11.20;99.90
61392;DHT22;47261;52.892;5.738;2023-11-21T02:44:08;11.30;99.90
61392;DHT22;47261;52.892;5.738;2023-11-21T02:46:35;11.30;99.90
61392;DHT22;47261;52.892;5.738;2023-11-21T02:49:05;11.30;99.90
61392;DHT22;47261;52.892;5.738;2023-11-21T02:51:32;11.30;99.90
61392;DHT22;47261;52.892;5.738;2023-11-21T02:53:58;11.30;99.90
61392;DHT22;47261;52.892;5.738;2023-11-21T02:56:27;11.30;99.90
61392;DHT22;47261;52.892;5.738;2023-11-21T02:58:55;11.30;99.90
61392;DHT22;47261;52.892;5.738;2023-11-21T03:01:22;11.30;99.90
61392;DHT22;47261;52.892;5.738;2023-11-21T03:03:49;11.30;99.90
61392;DHT22;47261;52.892;5.738;2023-11-21T03:06:19;11.30;99.90
61392;DHT22;47261;52.892;5.738;2023-11-21T03:08:45;11.40;99.90
61392;DHT22;47261;52.892;5.738;2023-11-21T03:11:12;11.40;99.90
61392;DHT22;47261;52.892;5.738;2023-11-21T03:13:41;11.40;99.90
61392;DHT22;47261;52.892;5.738;2023-11-21T03:16:10;11.40;99.90
61392;DHT22;47261;52.892;5.738;2023-11-21T03:18:36;11.40;99.90
61392;DHT22;47261;52.892;5.738;2023-11-21T03:21:03;11.40;99.90
61392;DHT22;47261;52.892;5.738;2023-11-21T03:23:28;11.40;99.90
61392;DHT22;47261;52.892;5.738;2023-11-21T03:25:54;11.50;99.90
61392;DHT22;47261;52.892;5.738;2023-11-21T03:28:20;11.50;99.90
61392;DHT22;47261;52.892;5.738;2023-11-21T03:30:45;11.60;99.90
61392;DHT22;47261;52.892;5.738;2023-11-21T03:33:11;11.60;99.90
61392;DHT22;47261;52.892;5.738;2023-11-21T03:35:37;11.60;99.90
61392;DHT22;47261;52.892;5.738;2023-11-21T03:38:03;11.60;99.90
61392;DHT22;47261;52.892;5.738;2023-11-21T03:40:29;11.60;99.90
61392;DHT22;47261;52.892;5.738;2023-11-21T03:42:56;11.70;99.90
61392;DHT22;47261;52.892;5.738;2023-11-21T03:45:22;11.70;99.90
61392;DHT22;47261;52.892;5.738;2023-11-21T03:47:48;11.70;99.90
61392;DHT22;47261;52.892;5.738;2023-11-21T03:50:14;11.70;99.90
61392;DHT22;47261;52.892;5.738;2023-11-21T03:52:39;11.70;99.90
61392;DHT22;47261;52.892;5.738;2023-11-21T03:55:05;11.70;99.90
61392;DHT22;47261;52.892;5.738;2023-11-21T03:57:31;11.80;99.90
61392;DHT22;47261;52.892;5.738;2023-11-21T03:59:56;11.80;99.90
61392;DHT22;47261;52.892;5.738;2023-11-21T04:02:22;11.80;99.90
61392;DHT22;47261;52.892;5.738;2023-11-21T04:04:48;11.80;99.90
61392;DHT22;47261;52.892;5.738;2023-11-21T04:07:13;11.80;99.90
61392;DHT22;47261;52.892;5.738;2023-11-21T04:09:39;11.80;99.90
61392;DHT22;47261;52.892;5.738;2023-11-21T04:12:07;11.80;99.90
61392;DHT22;47261;52.892;5.738;2023-11-21T04:14:34;11.80;99.90
61392;DHT22;47261;52.892;5.738;2023-11-21T04:17:00;11.80;99.90
61392;DHT22;47261;52.892;5.738;2023-11-21T04:19:25;11.80;99.90
61392;DHT22;47261;52.892;5.738;2023-11-21T04:21:51;11.80;99.90
61392;DHT22;47261;52.892;5.738;2023-11-21T04:24:17;11.80;99.90
61392;DHT22;47261;52.892;5.738;2023-11-21T04:26:43;11.80;99.90
61392;DHT22;47261;52.892;5.738;2023-11-21T04:29:09;11.80;99.90
61392;DHT22;47261;52.892;5.738;2023-11-21T04:31:35;11.70;99.90
61392;DHT22;47261;52.892;5.738;2023-11-21T04:34:00;11.80;99.90
61392;DHT22;47261;52.892;5.738;2023-11-21T04:36:26;11.70;99.90
61392;DHT22;47261;52.892;5.738;2023-11-21T04:38:52;11.80;99.90
61392;DHT22;47261;52.892;5.738;2023-11-21T04:41:17;11.80;99.90
61392;DHT22;47261;52.892;5.738;2023-11-21T04:43:43;11.80;99.90
61392;DHT22;47261;52.892;5.738;2023-11-21T04:46:09;11.80;99.90
61392;DHT22;47261;52.892;5.738;2023-11-21T04:48:34;11.80;99.90
61392;DHT22;47261;52.892;5.738;2023-11-21T04:51:00;11.80;99.90
61392;DHT22;47261;52.892;5.738;2023-11-21T04:53:26;11.80;99.90
61392;DHT22;47261;52.892;5.738;2023-11-21T04:55:51;11.80;99.90
61392;DHT22;47261;52.892;5.738;2023-11-21T04:58:17;11.80;99.90
61392;DHT22;47261;52.892;5.738;2023-11-21T05:00:43;11.80;99.90
61392;DHT22;47261;52.892;5.738;2023-11-21T05:03:09;11.80;99.90
61392;DHT22;47261;52.892;5.738;2023-11-21T05:05:35;11.80;99.90
61392;DHT22;47261;52.892;5.738;2023-11-21T05:08:00;11.80;99.90
61392;DHT22;47261;52.892;5.738;2023-11-21T05:10:27;11.80;99.90
61392;DHT22;47261;52.892;5.738;2023-11-21T05:12:52;11.80;99.90
61392;DHT22;47261;52.892;5.738;2023-11-21T05:15:18;11.80;99.90
61392;DHT22;47261;52.892;5.738;2023-11-21T05:17:44;11.70;99.90
61392;DHT22;47261;52.892;5.738;2023-11-21T05:20:11;11.70;99.90
61392;DHT22;47261;52.892;5.738;2023-11-21T05:22:39;11.70;99.90
61392;DHT22;47261;52.892;5.738;2023-11-21T05:25:05;11.70;99.90
61392;DHT22;47261;52.892;5.738;2023-11-21T05:27:32;11.70;99.90
61392;DHT22;47261;52.892;5.738;2023-11-21T05:29:58;11.70;99.90
61392;DHT22;47261;52.892;5.738;2023-11-21T05:32:25;11.70;99.90
61392;DHT22;47261;52.892;5.738;2023-11-21T05:34:51;11.60;99.90
61392;DHT22;47261;52.892;5.738;2023-11-21T05:37:16;11.60;99.90
61392;DHT22;47261;52.892;5.738;2023-11-21T05:39:43;11.60;99.90
61392;DHT22;47261;52.892;5.738;2023-11-21T05:42:09;11.60;99.90
61392;DHT22;47261;52.892;5.738;2023-11-21T05:44:36;11.60;99.90
61392;DHT22;47261;52.892;5.738;2023-11-21T05:47:02;11.60;99.90
61392;DHT22;47261;52.892;5.738;2023-11-21T05:49:29;11.60;99.90
61392;DHT22;47261;52.892;5.738;2023-11-21T05:51:55;11.50;99.90
61392;DHT22;47261;52.892;5.738;2023-11-21T05:54:21;11.50;99.90
61392;DHT22;47261;52.892;5.738;2023-11-21T05:56:47;11.50;99.90
61392;DHT22;47261;52.892;5.738;2023-11-21T05:59:13;11.50;99.90
61392;DHT22;47261;52.892;5.738;2023-11-21T06:01:39;11.50;99.90
61392;DHT22;47261;52.892;5.738;2023-11-21T06:04:05;11.50;99.90
61392;DHT22;47261;52.892;5.738;2023-11-21T06:06:31;11.50;99.90
61392;DHT22;47261;52.892;5.738;2023-11-21T06:08:57;11.50;99.90
61392;DHT22;47261;52.892;5.738;2023-11-21T06:11:22;11.40;99.90
61392;DHT22;47261;52.892;5.738;2023-11-21T06:13:49;11.40;99.90
61392;DHT22;47261;52.892;5.738;2023-11-21T06:16:15;11.40;99.90
61392;DHT22;47261;52.892;5.738;2023-11-21T06:18:43;11.40;99.90
61392;DHT22;47261;52.892;5.738;2023-11-21T06:21:12;11.40;99.90
61392;DHT22;47261;52.892;5.738;2023-11-21T06:23:39;11.40;99.90
61392;DHT22;47261;52.892;5.738;2023-11-21T06:26:05;11.40;99.90
61392;DHT22;47261;52.892;5.738;2023-11-21T06:28:32;11.40;99.90
61392;DHT22;47261;52.892;5.738;2023-11-21T06:30:58;11.40;99.90
61392;DHT22;47261;52.892;5.738;2023-11-21T06:33:24;11.40;99.90
61392;DHT22;47261;52.892;5.738;2023-11-21T06:35:52;11.40;99.90
61392;DHT22;47261;52.892;5.738;2023-11-21T06:38:18;11.40;99.90
61392;DHT22;47261;52.892;5.738;2023-11-21T06:40:45;11.30;99.90
61392;DHT22;47261;52.892;5.738;2023-11-21T06:43:11;11.40;99.90
61392;DHT22;47261;52.892;5.738;2023-11-21T06:45:36;11.30;99.90
61392;DHT22;47261;52.892;5.738;2023-11-21T06:48:02;11.30;99.90
61392;DHT22;47261;52.892;5.738;2023-11-21T06:50:28;11.30;99.90
61392;DHT22;47261;52.892;5.738;2023-11-21T06:52:53;11.30;99.90
61392;DHT22;47261;52.892;5.738;2023-11-21T06:55:19;11.30;99.90
61392;DHT22;47261;52.892;5.738;2023-11-21T06:57:45;11.20;99.90
61392;DHT22;47261;52.892;5.738;2023-11-21T07:00:13;11.20;99.90
61392;DHT22;47261;52.892;5.738;2023-11-21T07:02:39;11.20;99.90
61392;DHT22;47261;52.892;5.738;2023-11-21T07:05:05;11.20;99.90
61392;DHT22;47261;52.892;5.738;2023-11-21T07:07:31;11.20;99.90
61392;DHT22;47261;52.892;5.738;2023-11-21T07:09:56;11.20;99.90
61392;DHT22;47261;52.892;5.738;2023-11-21T07:12:22;11.20;99.90
61392;DHT22;47261;52.892;5.738;2023-11-21T07:14:49;11.20;99.90
61392;DHT22;47261;52.892;5.738;2023-11-21T07:17:14;11.10;99.90
61392;DHT22;47261;52.892;5.738;2023-11-21T07:19:41;11.10;99.90
61392;DHT22;47261;52.892;5.738;2023-11-21T07:22:07;11.00;99.90
61392;DHT22;47261;52.892;5.738;2023-11-21T07:24:34;11.00;99.90
61392;DHT22;47261;52.892;5.738;2023-11-21T07:26:59;11.00;99.90
61392;DHT22;47261;52.892;5.738;2023-11-21T07:29:26;11.00;99.90
61392;DHT22;47261;52.892;5.738;2023-11-21T07:31:52;11.00;99.90
61392;DHT22;47261;52.892;5.738;2023-11-21T07:34:20;11.00;99.90
61392;DHT22;47261;52.892;5.738;2023-11-21T07:36:46;11.00;99.90
61392;DHT22;47261;52.892;5.738;2023-11-21T07:39:12;11.00;99.90
61392;DHT22;47261;52.892;5.738;2023-11-21T07:41:37;11.10;99.90
61392;DHT22;47261;52.892;5.738;2023-11-21T07:44:10;11.10;99.90
61392;DHT22;47261;52.892;5.738;2023-11-21T07:46:36;11.10;99.90
61392;DHT22;47261;52.892;5.738;2023-11-21T07:49:01;11.10;99.90
61392;DHT22;47261;52.892;5.738;2023-11-21T07:51:27;11.10;99.90
61392;DHT22;47261;52.892;5.738;2023-11-21T07:53:53;11.10;99.90
61392;DHT22;47261;52.892;5.738;2023-11-21T07:56:18;11.10;99.90
61392;DHT22;47261;52.892;5.738;2023-11-21T07:58:44;11.10;99.90
61392;DHT22;47261;52.892;5.738;2023-11-21T08:01:10;11.10;99.90
61392;DHT22;47261;52.892;5.738;2023-11-21T08:03:35;11.20;99.90
61392;DHT22;47261;52.892;5.738;2023-11-21T08:06:01;11.10;99.90
61392;DHT22;47261;52.892;5.738;2023-11-21T08:08:28;11.10;99.90
61392;DHT22;47261;52.892;5.738;2023-11-21T08:10:54;11.10;99.90
61392;DHT22;47261;52.892;5.738;2023-11-21T08:13:26;11.10;99.90
61392;DHT22;47261;52.892;5.738;2023-11-21T08:15:56;11.10;99.90
61392;DHT22;47261;52.892;5.738;2023-11-21T08:18:23;11.10;99.90
61392;DHT22;47261;52.892;5.738;2023-11-21T08:20:50;11.10;99.90
61392;DHT22;47261;52.892;5.738;2023-11-21T08:23:16;11.20;99.90
61392;DHT22;47261;52.892;5.738;2023-11-21T08:25:44;11.20;99.90
61392;DHT22;47261;52.892;5.738;2023-11-21T08:28:10;11.20;99.90
61392;DHT22;47261;52.892;5.738;2023-11-21T08:30:36;11.20;99.90
61392;DHT22;47261;52.892;5.738;2023-11-21T08:33:02;11.10;99.90
61392;DHT22;47261;52.892;5.738;2023-11-21T08:35:29;11.20;99.90
61392;DHT22;47261;52.892;5.738;2023-11-21T08:37:55;11.20;99.90
61392;DHT22;47261;52.892;5.738;2023-11-21T08:40:21;11.20;99.90
61392;DHT22;47261;52.892;5.738;2023-11-21T08:42:50;11.10;99.90
61392;DHT22;47261;52.892;5.738;2023-11-21T08:45:18;11.10;99.90
61392;DHT22;47261;52.892;5.738;2023-11-21T08:47:44;11.10;99.90
61392;DHT22;47261;52.892;5.738;2023-11-21T08:50:10;11.10;99.90
61392;DHT22;47261;52.892;5.738;2023-11-21T08:52:38;11.00;99.90
61392;DHT22;47261;52.892;5.738;2023-11-21T08:55:04;11.00;99.90
61392;DHT22;47261;52.892;5.738;2023-11-21T08:57:36;11.00;99.90
61392;DHT22;47261;52.892;5.738;2023-11-21T09:00:06;10.90;99.90
61392;DHT22;47261;52.892;5.738;2023-11-21T09:02:36;10.80;99.90
61392;DHT22;47261;52.892;5.738;2023-11-21T09:05:06;10.80;99.90
61392;DHT22;47261;52.892;5.738;2023-11-21T09:07:32;10.70;99.90
61392;DHT22;47261;52.892;5.738;2023-11-21T09:09:57;10.70;99.90
61392;DHT22;47261;52.892;5.738;2023-11-21T09:12:23;10.60;99.90
61392;DHT22;47261;52.892;5.738;2023-11-21T09:14:50;10.60;99.90
61392;DHT22;47261;52.892;5.738;2023-11-21T09:17:16;10.60;99.90
61392;DHT22;47261;52.892;5.738;2023-11-21T09:19:42;10.60;99.90
61392;DHT22;47261;52.892;5.738;2023-11-21T09:22:15;10.50;99.90
61392;DHT22;47261;52.892;5.738;2023-11-21T09:24:41;10.50;99.90
61392;DHT22;47261;52.892;5.738;2023-11-21T09:27:08;10.50;99.90
61392;DHT22;47261;52.892;5.738;2023-11-21T09:29:35;10.50;99.90
61392;DHT22;47261;52.892;5.738;2023-11-21T09:32:00;10.60;99.90
61392;DHT22;47261;52.892;5.738;2023-11-21T09:34:26;10.60;99.90
61392;DHT22;47261;52.892;5.738;2023-11-21T09:36:52;10.60;99.90
61392;DHT22;47261;52.892;5.738;2023-11-21T09:39:18;10.60;99.90
61392;DHT22;47261;52.892;5.738;2023-11-21T09:41:50;10.60;99.90
61392;DHT22;47261;52.892;5.738;2023-11-21T09:44:25;10.70;99.90
61392;DHT22;47261;52.892;5.738;2023-11-21T09:46:59;10.70;99.90
61392;DHT22;47261;52.892;5.738;2023-11-21T09:49:26;10.70;99.90
61392;DHT22;47261;52.892;5.738;2023-11-21T09:51:55;10.80;99.90
61392;DHT22;47261;52.892;5.738;2023-11-21T09:54:21;10.80;99.90
61392;DHT22;47261;52.892;5.738;2023-11-21T09:56:47;10.80;99.90
61392;DHT22;47261;52.892;5.738;2023-11-21T09:59:15;10.90;99.90
61392;DHT22;47261;52.892;5.738;2023-11-21T10:01:41;10.90;99.90
61392;DHT22;47261;52.892;5.738;2023-11-21T10:04:08;10.90;99.90
61392;DHT22;47261;52.892;5.738;2023-11-21T10:06:39;10.90;99.90
61392;DHT22;47261;52.892;5.738;2023-11-21T10:09:09;10.90;99.90
61392;DHT22;47261;52.892;5.738;2023-11-21T10:11:41;10.90;99.90
61392;DHT22;47261;52.892;5.738;2023-11-21T10:14:10;11.00;99.90
61392;DHT22;47261;52.892;5.738;2023-11-21T10:16:38;11.00;99.90
61392;DHT22;47261;52.892;5.738;2023-11-21T10:19:05;11.00;99.90
61392;DHT22;47261;52.892;5.738;2023-11-21T10:21:35;11.10;99.90
61392;DHT22;47261;52.892;5.738;2023-11-21T10:24:01;11.00;99.90
61392;DHT22;47261;52.892;5.738;2023-11-21T10:26:30;11.00;99.90
61392;DHT22;47261;52.892;5.738;2023-11-21T10:28:58;11.00;99.90
61392;DHT22;47261;52.892;5.738;2023-11-21T10:31:27;11.10;99.90
61392;DHT22;47261;52.892;5.738;2023-11-21T10:33:52;11.10;99.90
61392;DHT22;47261;52.892;5.738;2023-11-21T10:36:28;11.10;99.90
61392;DHT22;47261;52.892;5.738;2023-11-21T10:38:54;11.10;99.90
61392;DHT22;47261;52.892;5.738;2023-11-21T10:41:20;11.00;99.90
61392;DHT22;47261;52.892;5.738;2023-11-21T10:43:47;11.00;99.90
61392;DHT22;47261;52.892;5.738;2023-11-21T10:46:14;11.00;99.90
61392;DHT22;47261;52.892;5.738;2023-11-21T10:48:41;11.00;99.90
61392;DHT22;47261;52.892;5.738;2023-11-21T10:51:07;11.00;99.90
61392;DHT22;47261;52.892;5.738;2023-11-21T10:53:38;11.00;99.90
61392;DHT22;47261;52.892;5.738;2023-11-21T10:56:08;11.00;99.90
61392;DHT22;47261;52.892;5.738;2023-11-21T10:58:37;11.00;99.90
61392;DHT22;47261;52.892;5.738;2023-11-21T11:01:06;11.00;99.90
61392;DHT22;47261;52.892;5.738;2023-11-21T11:03:32;10.90;99.90
61392;DHT22;47261;52.892;5.738;2023-11-21T11:06:02;10.90;99.90
61392;DHT22;47261;52.892;5.738;2023-11-21T11:08:28;10.90;99.90
61392;DHT22;47261;52.892;5.738;2023-11-21T11:10:55;10.90;99.90
61392;DHT22;47261;52.892;5.738;2023-11-21T11:13:21;10.90;99.90
61392;DHT22;47261;52.892;5.738;2023-11-21T11:15:50;10.90;99.90
61392;DHT22;47261;52.892;5.738;2023-11-21T11:18:16;10.90;99.90
61392;DHT22;47261;52.892;5.738;2023-11-21T11:20:43;10.90;99.90
61392;DHT22;47261;52.892;5.738;2023-11-21T11:26:36;10.90;99.90
61392;DHT22;47261;52.892;5.738;2023-11-21T11:29:13;10.90;99.90
61392;DHT22;47261;52.892;5.738;2023-11-21T11:34:56;10.80;99.90
61392;DHT22;47261;52.892;5.738;2023-11-21T11:37:25;10.80;99.90
61392;DHT22;47261;52.892;5.738;2023-11-21T11:39:51;10.80;99.90
61392;DHT22;47261;52.892;5.738;2023-11-21T11:42:18;10.70;99.90
61392;DHT22;47261;52.892;5.738;2023-11-21T11:47:27;10.70;99.90
61392;DHT22;47261;52.892;5.738;2023-11-21T11:50:04;10.70;99.90
61392;DHT22;47261;52.892;5.738;2023-11-21T11:52:45;10.70;99.90
61392;DHT22;47261;52.892;5.738;2023-11-21T11:55:13;10.70;99.90
61392;DHT22;47261;52.892;5.738;2023-11-21T11:57:42;10.60;99.90
61392;DHT22;47261;52.892;5.738;2023-11-21T12:00:09;10.70;99.90
61392;DHT22;47261;52.892;5.738;2023-11-21T12:02:36;10.60;99.90
61392;DHT22;47261;52.892;5.738;2023-11-21T12:05:09;10.60;99.90
61392;DHT22;47261;52.892;5.738;2023-11-21T12:07:47;10.60;99.90
61392;DHT22;47261;52.892;5.738;2023-11-21T12:10:18;10.60;99.90
61392;DHT22;47261;52.892;5.738;2023-11-21T12:12:49;10.60;99.90
61392;DHT22;47261;52.892;5.738;2023-11-21T12:15:15;10.60;99.90
61392;DHT22;47261;52.892;5.738;2023-11-21T12:17:42;10.60;99.90
61392;DHT22;47261;52.892;5.738;2023-11-21T12:20:09;10.60;99.90
61392;DHT22;47261;52.892;5.738;2023-11-21T12:22:50;10.50;99.90
61392;DHT22;47261;52.892;5.738;2023-11-21T12:25:17;10.50;99.90
61392;DHT22;47261;52.892;5.738;2023-11-21T12:27:50;10.60;99.90
61392;DHT22;47261;52.892;5.738;2023-11-21T12:30:23;10.50;99.90
61392;DHT22;47261;52.892;5.738;2023-11-21T12:32:50;10.50;99.90
61392;DHT22;47261;52.892;5.738;2023-11-21T12:35:23;10.50;99.90
61392;DHT22;47261;52.892;5.738;2023-11-21T12:37:49;10.40;99.90
61392;DHT22;47261;52.892;5.738;2023-11-21T12:40:16;10.50;99.90
61392;DHT22;47261;52.892;5.738;2023-11-21T12:42:44;10.50;99.90
61392;DHT22;47261;52.892;5.738;2023-11-21T12:47:43;10.70;99.90
61392;DHT22;47261;52.892;5.738;2023-11-21T12:50:09;10.80;99.90
61392;DHT22;47261;52.892;5.738;2023-11-21T12:52:46;11.00;99.90
61392;DHT22;47261;52.892;5.738;2023-11-21T12:55:21;11.30;99.90
61392;DHT22;47261;52.892;5.738;2023-11-21T12:57:54;11.50;99.90
61392;DHT22;47261;52.892;5.738;2023-11-21T13:00:28;11.50;99.90
61392;DHT22;47261;52.892;5.738;2023-11-21T13:02:56;11.50;99.90
61392;DHT22;47261;52.892;5.738;2023-11-21T13:05:36;11.40;99.90
61392;DHT22;47261;52.892;5.738;2023-11-21T13:08:06;11.30;99.90
61392;DHT22;47261;52.892;5.738;2023-11-21T13:10:37;11.20;99.90
61392;DHT22;47261;52.892;5.738;2023-11-21T13:13:07;11.10;99.90
61392;DHT22;47261;52.892;5.738;2023-11-21T13:15:35;11.00;99.90
61392;DHT22;47261;52.892;5.738;2023-11-21T13:18:03;10.90;99.90
61392;DHT22;47261;52.892;5.738;2023-11-21T13:20:29;10.90;99.90
61392;DHT22;47261;52.892;5.738;2023-11-21T13:22:58;10.80;99.90
61392;DHT22;47261;52.892;5.738;2023-11-21T13:25:25;10.80;99.90
61392;DHT22;47261;52.892;5.738;2023-11-21T13:28:00;10.90;99.90
61392;DHT22;47261;52.892;5.738;2023-11-21T13:30:28;10.90;99.90
61392;DHT22;47261;52.892;5.738;2023-11-21T13:33:03;11.00;99.90
61392;DHT22;47261;52.892;5.738;2023-11-21T13:35:33;11.10;99.90
61392;DHT22;47261;52.892;5.738;2023-11-21T13:38:11;11.20;99.90
61392;DHT22;47261;52.892;5.738;2023-11-21T13:40:39;11.20;99.90
61392;DHT22;47261;52.892;5.738;2023-11-21T13:43:13;11.30;99.90
61392;DHT22;47261;52.892;5.738;2023-11-21T13:45:43;11.30;99.90
61392;DHT22;47261;52.892;5.738;2023-11-21T13:48:10;11.40;99.90
61392;DHT22;47261;52.892;5.738;2023-11-21T13:50:43;11.40;99.90
61392;DHT22;47261;52.892;5.738;2023-11-21T13:53:14;11.40;99.90
61392;DHT22;47261;52.892;5.738;2023-11-21T13:55:48;11.40;99.90
61392;DHT22;47261;52.892;5.738;2023-11-21T13:58:15;11.40;99.90
61392;DHT22;47261;52.892;5.738;2023-11-21T14:00:45;11.50;99.90
61392;DHT22;47261;52.892;5.738;2023-11-21T14:03:12;11.50;99.90
61392;DHT22;47261;52.892;5.738;2023-11-21T14:05:47;11.40;99.90
61392;DHT22;47261;52.892;5.738;2023-11-21T14:08:18;11.40;99.90
61392;DHT22;47261;52.892;5.738;2023-11-21T14:10:45;11.30;99.90
61392;DHT22;47261;52.892;5.738;2023-11-21T14:13:17;11.10;99.90
61392;DHT22;47261;52.892;5.738;2023-11-21T14:15:42;11.00;99.90
61392;DHT22;47261;52.892;5.738;2023-11-21T14:18:16;10.90;99.90
61392;DHT22;47261;52.892;5.738;2023-11-21T14:20:43;10.80;99.90
61392;DHT22;47261;52.892;5.738;2023-11-21T14:23:10;10.60;99.90
61392;DHT22;47261;52.892;5.738;2023-11-21T14:25:37;10.50;99.90
61392;DHT22;47261;52.892;5.738;2023-11-21T14:28:05;10.40;99.90
61392;DHT22;47261;52.892;5.738;2023-11-21T14:30:32;10.30;99.90
61392;DHT22;47261;52.892;5.738;2023-11-21T14:33:01;10.20;99.90
61392;DHT22;47261;52.892;5.738;2023-11-21T14:35:27;10.20;99.90
61392;DHT22;47261;52.892;5.738;2023-11-21T14:37:53;10.20;99.90
61392;DHT22;47261;52.892;5.738;2023-11-21T14:40:20;10.20;99.90
61392;DHT22;47261;52.892;5.738;2023-11-21T14:42:50;10.30;99.90
61392;DHT22;47261;52.892;5.738;2023-11-21T14:45:19;10.40;99.90
61392;DHT22;47261;52.892;5.738;2023-11-21T14:47:46;10.60;99.90
61392;DHT22;47261;52.892;5.738;2023-11-21T14:50:21;10.70;99.90
61392;DHT22;47261;52.892;5.738;2023-11-21T14:53:13;10.90;99.90
61392;DHT22;47261;52.892;5.738;2023-11-21T14:55:39;10.90;99.90
61392;DHT22;47261;52.892;5.738;2023-11-21T14:58:14;10.80;99.90
61392;DHT22;47261;52.892;5.738;2023-11-21T15:00:45;10.70;99.90
61392;DHT22;47261;52.892;5.738;2023-11-21T15:03:12;10.60;99.90
61392;DHT22;47261;52.892;5.738;2023-11-21T15:06:02;10.50;99.90
61392;DHT22;47261;52.892;5.738;2023-11-21T15:08:48;10.30;99.90
61392;DHT22;47261;52.892;5.738;2023-11-21T15:11:18;10.20;99.90
61392;DHT22;47261;52.892;5.738;2023-11-21T15:13:44;10.20;99.90
61392;DHT22;47261;52.892;5.738;2023-11-21T15:16:12;10.10;99.90
61392;DHT22;47261;52.892;5.738;2023-11-21T15:18:37;10.10;99.90
61392;DHT22;47261;52.892;5.738;2023-11-21T15:21:04;10.00;99.90
61392;DHT22;47261;52.892;5.738;2023-11-21T15:23:30;10.00;99.90
61392;DHT22;47261;52.892;5.738;2023-11-21T15:26:00;9.90;99.90
61392;DHT22;47261;52.892;5.738;2023-11-21T15:28:27;9.90;99.90
61392;DHT22;47261;52.892;5.738;2023-11-21T15:30:54;9.90;99.90
61392;DHT22;47261;52.892;5.738;2023-11-21T15:33:19;9.90;99.90
61392;DHT22;47261;52.892;5.738;2023-11-21T15:35:45;9.80;99.90
61392;DHT22;47261;52.892;5.738;2023-11-21T15:38:11;9.80;99.90
61392;DHT22;47261;52.892;5.738;2023-11-21T15:40:37;9.80;99.90
61392;DHT22;47261;52.892;5.738;2023-11-21T15:43:03;9.80;99.90